Nearby METAR Reports

 

KTAN - Taunton, Massachusetts, USA
Distance from station: W 5mi, 8km
Updated: Mon, 24-Jun-2024 1:52pm EDT
Mostly cloudy
Mostly cloudy
 Wind from W
Wind: W 9 mph, 15 km/h, Gust: 17 mph, 28 km/h
Temperature: 82°F, 28°C
Heat Index: 82°F, 28°C
Dew Point: 61°F, 16°C
Humidity: 48%
Barometer: 29.52 inHg, 999.7 hPa
Clouds: Mostly cloudy
Visibility: 10 miles, 16 km
Cloud details: Mostly cloudy 6000 ft
2024/06/24 17:52 KTAN 241752Z AUTO 28008G15KT 240V330 10SM BKN060 28/16 A2952 RMK AO2 SLP995 T02780156 10294 20244 50000
KPYM - Plymouth, Massachusetts, USA
Distance from station: ENE 10mi, 16km
Updated: Mon, 24-Jun-2024 1:52pm EDT
Partly cloudy
Partly cloudy
 Wind from WNW
Wind: WNW 9 mph, 15 km/h, Gust: 20 mph, 31 km/h
Temperature: 82°F, 28°C
Heat Index: 83°F, 28°C
Dew Point: 63°F, 17°C
Humidity: 51%
Barometer: 29.52 inHg, 999.7 hPa
Clouds: Partly cloudy
Visibility: 10 miles, 16 km
Cloud details: Few Clouds 4500 ft
Partly cloudy 5500 ft
2024/06/24 17:52 KPYM 241752Z AUTO 29008G17KT 10SM FEW045 SCT055 28/17 A2952 RMK AO2 SLP996 T02830172 10294 20239 50000
 
KEWB - New Bedford, Massachusetts, USA
Distance from station: S 14mi, 23km
Updated: Mon, 24-Jun-2024 1:53pm EDT
Partly cloudy
Partly cloudy
 Wind from WSW
Wind: WSW 13 mph, 20 km/h, Gust: 17 mph, 28 km/h
Temperature: 82°F, 28°C
Heat Index: 84°F, 29°C
Dew Point: 64°F, 18°C
Humidity: 55%
Barometer: 29.52 inHg, 999.7 hPa
Clouds: Partly cloudy
Visibility: 10 miles, 16 km
Cloud details: Partly cloudy 4800 ft
Partly cloudy 6000 ft
2024/06/24 17:53 KEWB 241753Z 25011G15KT 10SM SCT048 SCT060 28/18 A2952 RMK AO2 SLP994 T02780178 10289 20228 58002
KGHG - Marshfield, Massachusetts, USA
Distance from station: NE 20mi, 31km
Updated: Mon, 24-Jun-2024 2:15pm EDT
Mostly cloudy
Mostly cloudy
 Wind from varies
Wind: varies 7 mph, 11 km/h
Temperature: 81°F, 27°C
Heat Index: 81°F, 27°C
Dew Point: 59°F, 15°C
Humidity: 48%
Barometer: 29.52 inHg, 999.7 hPa
Clouds: Mostly cloudy
Visibility: 10 miles, 16 km
Cloud details: Mostly cloudy 5000 ft
Mostly cloudy 6500 ft
2024/06/24 18:15 KGHG 241815Z AUTO VRB06KT 10SM BKN050 BKN065 27/15 A2952 RMK AO2
 
KOWD - Norwood, Massachusetts, USA
Distance from station: NNW 24mi, 39km
Updated: Mon, 24-Jun-2024 1:53pm EDT
Overcast
Overcast
 Wind from WNW
Wind: WNW 12 mph, 19 km/h, Gust: 23 mph, 37 km/h
Temperature: 81°F, 27°C
Heat Index: 82°F, 28°C
Dew Point: 61°F, 16°C
Humidity: 51%
Barometer: 29.53 inHg, 1000 hPa
Clouds: Overcast
Visibility: 10 miles, 16 km
Cloud details: Overcast 7000 ft
2024/06/24 17:53 KOWD 241753Z 29010G20KT 10SM OVC070 27/16 A2953 RMK AO2 SLP000 T02720161 10283 20261 50001
KMQE - East Milton, Massachusetts, USA
Distance from station: NNW 25mi, 40km
Updated: Thu, 01-Jul-2021 9:51am EDT
NOT Current

 Wind from WNW
Wind: WNW 9 mph, 15 km/h
Temperature: 75°F, 24°C
Dew Point: 70°F, 21°C
Humidity: 83%
Barometer: 29.86 inHg, 1011.2 hPa
2021/07/01 13:51 KMQE 011351Z AUTO 30008KT 24/21 A2986 RMK AO1 SLP116 T02440206
 
KFMH - Falmouth/Otis Ab, Massachusetts, USA
Distance from station: SE 27mi, 44km
Updated: Mon, 24-Jun-2024 1:45pm EDT
Clear
Clear
 Wind from SW
Wind: SW 23 mph, 37 km/h
Temperature: 79°F, 26°C
Dew Point: 63°F, 17°C
Humidity: 58%
Barometer: 29.55 inHg, 1000.7 hPa
Clouds: Clear
Visibility: 10 miles, 16 km
2024/06/24 17:45 KFMH 241745Z 23020KT 10SM CLR 26/17 A2955
KPVD - Providence/Green, Rhode Island, USA
Distance from station: WSW 29mi, 47km
Updated: Mon, 24-Jun-2024 1:51pm EDT
Mostly cloudy
Mostly cloudy
 Wind from W
Wind: W 14 mph, 22 km/h, Gust: 22 mph, 35 km/h
Temperature: 82°F, 28°C
Heat Index: 82°F, 28°C
Dew Point: 61°F, 16°C
Humidity: 48%
Barometer: 29.54 inHg, 1000.3 hPa
Clouds: Mostly cloudy
Visibility: 10 miles, 16 km
Cloud details: Partly cloudy 4800 ft
Mostly cloudy 6500 ft
2024/06/24 17:51 KPVD 241751Z 28012G19KT 10SM SCT048 BKN065 28/16 A2954 RMK AO2 SLP003 T02780161 10278 20244 50000
 
KSFZ - Pawtucket, Rhode Island, USA
Distance from station: W 30mi, 48km
Updated: Mon, 24-Jun-2024 1:56pm EDT
Mostly cloudy
Mostly cloudy
 Wind from WNW
Wind: WNW 10 mph, 17 km/h
Temperature: 75°F, 24°C
Dew Point: 61°F, 16°C
Humidity: 61%
Barometer: 29.57 inHg, 1001.4 hPa
Clouds: Mostly cloudy
Visibility: 10 miles, 16 km
Cloud details: Mostly cloudy 6000 ft
2024/06/24 17:56 KSFZ 241756Z AUTO 29009KT 10SM BKN060 24/16 A2957 RMK AO2 SLP008 T02440156 10261 20233 51001 $
KUUU - Newport, Rhode Island, USA
Distance from station: SW 31mi, 50km
Updated: Mon, 24-Jun-2024 1:53pm EDT
Mostly cloudy
Mostly cloudy
 Wind from varies
Wind: varies 5 mph, 7 km/h, Gust: 22 mph, 35 km/h
Temperature: 75°F, 24°C
Dew Point: 61°F, 16°C
Humidity: 61%
Barometer: 29.55 inHg, 1000.7 hPa
Clouds: Mostly cloudy
Visibility: 10 miles, 16 km
Cloud details: Few Clouds 4000 ft
Mostly cloudy 5000 ft
Mostly cloudy 6000 ft
2024/06/24 17:53 KUUU 241753Z AUTO VRB04G19KT 10SM FEW040 BKN050 BKN060 24/16 A2955 RMK AO2 SLP003 T02390161 10272 20217 56001
 
KOQU - N. Kingston/Quon, Rhode Island, USA
Distance from station: SW 32mi, 52km
Updated: Sun, 23-Jun-2024 5:50pm EDT
NOT Current
Mist, Mostly cloudy
Mist, Mostly cloudy
 Wind from SW
Wind: SW 25 mph, 41 km/h
Temperature: 79°F, 26°C
Dew Point: 73°F, 23°C
Humidity: 84%
Barometer: 29.63 inHg, 1003.4 hPa
Summary: Mist
Clouds: Mostly cloudy
Visibility: 7 miles, 11 km
Cloud details: Partly cloudy 2000 ft
Mostly cloudy 10000 ft
2024/06/23 21:50 KOQU 232150Z 23022KT 7SM BR SCT020 BKN100 26/23 A2963 RMK LAST
KBOS - Boston, Massachusetts, USA
Distance from station: N 33mi, 54km
Updated: Mon, 24-Jun-2024 1:54pm EDT
Mostly cloudy
Mostly cloudy
 Wind from W
Wind: W 12 mph, 19 km/h, Gust: 23 mph, 37 km/h
Temperature: 79°F, 26°C
Dew Point: 55°F, 13°C
Humidity: 45%
Barometer: 29.52 inHg, 999.7 hPa
Clouds: Mostly cloudy
Visibility: 10 miles, 16 km
Cloud details: Mostly cloudy 7000 ft
2024/06/24 17:54 KBOS 241754Z 28010G20KT 10SM BKN070 26/13 A2952 RMK AO2 PK WND 28026/1721 SLP997 T02610133 10278 20250 50001
 
KHYA - Hyannis, Massachusetts, USA
Distance from station: ESE 37mi, 59km
Updated: Mon, 24-Jun-2024 1:56pm EDT
Clear
Clear
 Wind from SW
Wind: SW 22 mph, 35 km/h, Gust: 30 mph, 48 km/h
Temperature: 81°F, 27°C
Heat Index: 83°F, 28°C
Dew Point: 64°F, 18°C
Humidity: 58%
Barometer: 29.52 inHg, 999.7 hPa
Clouds: Clear
Visibility: 10 miles, 16 km
2024/06/24 17:56 KHYA 241756Z 23019G26KT 10SM CLR 27/18 A2952 RMK AO2 PK WND 21028/1704 SLP997 T02670178 10272 20228 58004
KMVY - Marthas Vineyard, Massachusetts, USA
Distance from station: SSE 37mi, 60km
Updated: Mon, 24-Jun-2024 1:53pm EDT
Clear
Clear
 Wind from SW
Wind: SW 13 mph, 20 km/h
Temperature: 77°F, 25°C
Dew Point: 66°F, 19°C
Humidity: 69%
Barometer: 29.55 inHg, 1000.7 hPa
Clouds: Clear
Visibility: 10 miles, 16 km
2024/06/24 17:53 KMVY 241753Z 22011KT 10SM CLR 25/19 A2955 RMK AO2 SLP006 T02500189 10261 20222 58002
 
KPVC - Provincetown, Massachusetts, USA
Distance from station: ENE 38mi, 61km
Updated: Mon, 24-Jun-2024 1:56pm EDT
Mostly cloudy
Mostly cloudy
 Wind from N
Wind: N 6 mph, 9 km/h
Temperature: 79°F, 26°C
Dew Point: 66°F, 19°C
Humidity: 65%
Barometer: 29.53 inHg, 1000 hPa
Clouds: Mostly cloudy
Visibility: 10 miles, 16 km
Cloud details: Partly cloudy 3600 ft
Mostly cloudy 4500 ft
2024/06/24 17:56 KPVC 241756Z AUTO 35005KT 10SM SCT036 BKN045 26/19 A2953 RMK AO2 SLP998 T02560194 10261 20217 58004
KBED - Bedford, Massachusetts, USA
Distance from station: NNW 44mi, 72km
Updated: Mon, 24-Jun-2024 1:51pm EDT
Overcast
Overcast
 Wind from W
Wind: W 10 mph, 17 km/h, Gust: 25 mph, 41 km/h
Temperature: 79°F, 26°C
Dew Point: 55°F, 13°C
Humidity: 45%
Barometer: 29.53 inHg, 1000 hPa
Clouds: Overcast
Visibility: 10 miles, 16 km
Cloud details: Overcast 7000 ft
2024/06/24 17:51 KBED 241751Z 26009G22KT 10SM OVC070 26/13 A2953 RMK AO2 SLP008 T02560133 10267 20233 50003
 
KBVY - Beverly, Massachusetts, USA
Distance from station: 0 48mi, 77km
Updated: Mon, 24-Jun-2024 1:53pm EDT
Overcast
Overcast
 Wind from W
Wind: W 13 mph, 20 km/h, Gust: 22 mph, 35 km/h
Temperature: 75°F, 24°C
Dew Point: 57°F, 14°C
Humidity: 54%
Barometer: 29.52 inHg, 999.7 hPa
Clouds: Overcast
Visibility: 10 miles, 16 km
Cloud details: Overcast 6000 ft
2024/06/24 17:53 KBVY 241753Z 26011G19KT 10SM OVC060 24/14 A2952 RMK AO2 SLP991 T02390144 10261 20239 51003
KCQX - Chatham, Massachusetts, USA
Distance from station: ESE 49mi, 80km
Updated: Mon, 24-Jun-2024 1:52pm EDT
Clear
Clear
 Wind from WSW
Wind: WSW 9 mph, 15 km/h, Gust: 25 mph, 41 km/h
Temperature: 81°F, 27°C
Heat Index: 84°F, 29°C
Dew Point: 68°F, 20°C
Humidity: 66%
Barometer: 29.54 inHg, 1000.3 hPa
Clouds: Clear
Visibility: 10 miles, 16 km
2024/06/24 17:52 KCQX 241752Z AUTO 24008G22KT 10SM CLR 27/20 A2954 RMK AO2 SLP004 T02720200 10272 20228 58005